sensor_id;sensor_type;location;lat;lon;timestamp;P1;durP1;ratioP1;P2;durP2;ratioP2
21326;SDS011;10822;51.532;6.770;2023-11-21T00:00:26;10.60;;;5.88;;
21326;SDS011;10822;51.532;6.770;2023-11-21T00:02:52;11.85;;;6.78;;
21326;SDS011;10822;51.532;6.770;2023-11-21T00:05:18;10.23;;;6.30;;
21326;SDS011;10822;51.532;6.770;2023-11-21T00:07:44;12.05;;;6.90;;
21326;SDS011;10822;51.532;6.770;2023-11-21T00:10:10;8.68;;;6.03;;
21326;SDS011;10822;51.532;6.770;2023-11-21T00:12:37;13.80;;;6.18;;
21326;SDS011;10822;51.532;6.770;2023-11-21T00:15:03;13.25;;;7.72;;
21326;SDS011;10822;51.532;6.770;2023-11-21T00:17:38;11.75;;;6.28;;
21326;SDS011;10822;51.532;6.770;2023-11-21T00:20:05;11.57;;;6.05;;
21326;SDS011;10822;51.532;6.770;2023-11-21T00:22:35;12.88;;;6.75;;
21326;SDS011;10822;51.532;6.770;2023-11-21T00:25:01;15.90;;;6.70;;
21326;SDS011;10822;51.532;6.770;2023-11-21T00:27:28;12.85;;;6.95;;
21326;SDS011;10822;51.532;6.770;2023-11-21T00:29:55;14.32;;;6.47;;
21326;SDS011;10822;51.532;6.770;2023-11-21T00:32:20;12.00;;;6.50;;
21326;SDS011;10822;51.532;6.770;2023-11-21T00:34:46;13.38;;;7.60;;
21326;SDS011;10822;51.532;6.770;2023-11-21T00:37:14;11.35;;;7.60;;
21326;SDS011;10822;51.532;6.770;2023-11-21T00:39:40;14.55;;;7.55;;
21326;SDS011;10822;51.532;6.770;2023-11-21T00:42:06;13.70;;;7.07;;
21326;SDS011;10822;51.532;6.770;2023-11-21T00:44:33;18.63;;;8.07;;
21326;SDS011;10822;51.532;6.770;2023-11-21T00:46:59;15.85;;;8.43;;
21326;SDS011;10822;51.532;6.770;2023-11-21T00:49:25;15.43;;;7.75;;
21326;SDS011;10822;51.532;6.770;2023-11-21T00:51:53;11.75;;;6.55;;
21326;SDS011;10822;51.532;6.770;2023-11-21T00:54:19;18.65;;;7.85;;
21326;SDS011;10822;51.532;6.770;2023-11-21T00:56:44;16.85;;;8.05;;
21326;SDS011;10822;51.532;6.770;2023-11-21T00:59:12;14.38;;;7.78;;
21326;SDS011;10822;51.532;6.770;2023-11-21T01:01:38;16.85;;;8.88;;
21326;SDS011;10822;51.532;6.770;2023-11-21T01:04:04;15.25;;;8.43;;
21326;SDS011;10822;51.532;6.770;2023-11-21T01:06:31;17.27;;;8.30;;
21326;SDS011;10822;51.532;6.770;2023-11-21T01:08:57;11.63;;;7.57;;
21326;SDS011;10822;51.532;6.770;2023-11-21T01:11:23;16.25;;;8.50;;
21326;SDS011;10822;51.532;6.770;2023-11-21T01:13:49;16.52;;;9.82;;
21326;SDS011;10822;51.532;6.770;2023-11-21T01:16:15;15.15;;;8.80;;
21326;SDS011;10822;51.532;6.770;2023-11-21T01:18:41;15.05;;;8.55;;
21326;SDS011;10822;51.532;6.770;2023-11-21T01:21:08;15.40;;;8.18;;
21326;SDS011;10822;51.532;6.770;2023-11-21T01:23:34;19.00;;;9.10;;
21326;SDS011;10822;51.532;6.770;2023-11-21T01:26:00;15.40;;;8.55;;
21326;SDS011;10822;51.532;6.770;2023-11-21T01:28:26;19.15;;;8.57;;
21326;SDS011;10822;51.532;6.770;2023-11-21T01:30:52;16.98;;;9.50;;
21326;SDS011;10822;51.532;6.770;2023-11-21T01:33:21;14.35;;;8.45;;
21326;SDS011;10822;51.532;6.770;2023-11-21T01:35:49;16.73;;;9.23;;
21326;SDS011;10822;51.532;6.770;2023-11-21T01:38:15;17.27;;;8.98;;
21326;SDS011;10822;51.532;6.770;2023-11-21T01:40:42;16.13;;;9.50;;
21326;SDS011;10822;51.532;6.770;2023-11-21T01:43:08;16.95;;;9.82;;
21326;SDS011;10822;51.532;6.770;2023-11-21T01:45:34;16.77;;;9.82;;
21326;SDS011;10822;51.532;6.770;2023-11-21T01:48:00;19.23;;;10.07;;
21326;SDS011;10822;51.532;6.770;2023-11-21T01:50:27;16.25;;;9.90;;
21326;SDS011;10822;51.532;6.770;2023-11-21T01:52:53;16.58;;;9.25;;
21326;SDS011;10822;51.532;6.770;2023-11-21T01:55:19;18.00;;;10.13;;
21326;SDS011;10822;51.532;6.770;2023-11-21T01:57:45;18.48;;;10.15;;
21326;SDS011;10822;51.532;6.770;2023-11-21T02:00:12;15.35;;;9.57;;
21326;SDS011;10822;51.532;6.770;2023-11-21T02:02:44;24.40;;;10.75;;
21326;SDS011;10822;51.532;6.770;2023-11-21T02:05:11;17.42;;;10.18;;
21326;SDS011;10822;51.532;6.770;2023-11-21T02:07:40;22.48;;;11.05;;
21326;SDS011;10822;51.532;6.770;2023-11-21T02:10:07;18.02;;;10.30;;
21326;SDS011;10822;51.532;6.770;2023-11-21T02:12:34;16.00;;;9.48;;
21326;SDS011;10822;51.532;6.770;2023-11-21T02:15:01;20.45;;;11.40;;
21326;SDS011;10822;51.532;6.770;2023-11-21T02:17:28;16.77;;;11.18;;
21326;SDS011;10822;51.532;6.770;2023-11-21T02:19:54;21.50;;;11.07;;
21326;SDS011;10822;51.532;6.770;2023-11-21T02:22:21;17.35;;;10.52;;
21326;SDS011;10822;51.532;6.770;2023-11-21T02:24:51;20.05;;;10.70;;
21326;SDS011;10822;51.532;6.770;2023-11-21T02:27:17;22.85;;;11.02;;
21326;SDS011;10822;51.532;6.770;2023-11-21T02:29:46;15.75;;;10.70;;
21326;SDS011;10822;51.532;6.770;2023-11-21T02:32:12;17.75;;;11.05;;
21326;SDS011;10822;51.532;6.770;2023-11-21T02:34:39;22.20;;;11.77;;
21326;SDS011;10822;51.532;6.770;2023-11-21T02:37:05;21.55;;;11.85;;
21326;SDS011;10822;51.532;6.770;2023-11-21T02:39:31;21.52;;;12.18;;
21326;SDS011;10822;51.532;6.770;2023-11-21T02:41:57;20.10;;;11.48;;
21326;SDS011;10822;51.532;6.770;2023-11-21T02:44:23;20.90;;;12.50;;
21326;SDS011;10822;51.532;6.770;2023-11-21T02:46:49;20.38;;;12.18;;
21326;SDS011;10822;51.532;6.770;2023-11-21T02:49:15;21.23;;;12.27;;
21326;SDS011;10822;51.532;6.770;2023-11-21T02:51:41;25.75;;;14.60;;
21326;SDS011;10822;51.532;6.770;2023-11-21T02:54:07;30.67;;;16.02;;
21326;SDS011;10822;51.532;6.770;2023-11-21T02:56:33;23.92;;;12.63;;
21326;SDS011;10822;51.532;6.770;2023-11-21T02:59:00;22.20;;;13.32;;
21326;SDS011;10822;51.532;6.770;2023-11-21T03:01:26;19.40;;;12.30;;
21326;SDS011;10822;51.532;6.770;2023-11-21T03:03:53;21.73;;;12.90;;
21326;SDS011;10822;51.532;6.770;2023-11-21T03:06:20;24.33;;;13.32;;
21326;SDS011;10822;51.532;6.770;2023-11-21T03:08:46;23.27;;;13.15;;
21326;SDS011;10822;51.532;6.770;2023-11-21T03:11:12;22.02;;;12.82;;
21326;SDS011;10822;51.532;6.770;2023-11-21T03:13:39;21.05;;;12.25;;
21326;SDS011;10822;51.532;6.770;2023-11-21T03:16:07;23.80;;;12.68;;
21326;SDS011;10822;51.532;6.770;2023-11-21T03:18:33;19.63;;;12.02;;
21326;SDS011;10822;51.532;6.770;2023-11-21T03:20:59;18.38;;;12.02;;
21326;SDS011;10822;51.532;6.770;2023-11-21T03:23:25;24.70;;;13.45;;
21326;SDS011;10822;51.532;6.770;2023-11-21T03:25:51;17.13;;;12.25;;
21326;SDS011;10822;51.532;6.770;2023-11-21T03:28:17;20.67;;;12.57;;
21326;SDS011;10822;51.532;6.770;2023-11-21T03:30:43;20.77;;;12.05;;
21326;SDS011;10822;51.532;6.770;2023-11-21T03:33:09;20.90;;;12.43;;
21326;SDS011;10822;51.532;6.770;2023-11-21T03:35:35;25.67;;;13.48;;
21326;SDS011;10822;51.532;6.770;2023-11-21T03:38:01;25.58;;;14.25;;
21326;SDS011;10822;51.532;6.770;2023-11-21T03:40:27;22.38;;;13.30;;
21326;SDS011;10822;51.532;6.770;2023-11-21T03:42:53;19.08;;;12.23;;
21326;SDS011;10822;51.532;6.770;2023-11-21T03:45:19;22.58;;;13.25;;
21326;SDS011;10822;51.532;6.770;2023-11-21T03:47:45;20.83;;;12.77;;
21326;SDS011;10822;51.532;6.770;2023-11-21T03:50:12;20.85;;;12.23;;
21326;SDS011;10822;51.532;6.770;2023-11-21T03:52:38;20.15;;;12.68;;
21326;SDS011;10822;51.532;6.770;2023-11-21T03:55:06;26.63;;;14.23;;
21326;SDS011;10822;51.532;6.770;2023-11-21T03:57:33;22.58;;;12.85;;
21326;SDS011;10822;51.532;6.770;2023-11-21T03:59:59;25.75;;;14.85;;
21326;SDS011;10822;51.532;6.770;2023-11-21T04:02:25;23.17;;;13.25;;
21326;SDS011;10822;51.532;6.770;2023-11-21T04:04:52;23.50;;;12.00;;
21326;SDS011;10822;51.532;6.770;2023-11-21T04:07:18;24.77;;;13.93;;
21326;SDS011;10822;51.532;6.770;2023-11-21T04:09:44;24.50;;;14.02;;
21326;SDS011;10822;51.532;6.770;2023-11-21T04:12:13;25.52;;;14.65;;
21326;SDS011;10822;51.532;6.770;2023-11-21T04:14:41;25.20;;;14.40;;
21326;SDS011;10822;51.532;6.770;2023-11-21T04:17:28;24.40;;;13.82;;
21326;SDS011;10822;51.532;6.770;2023-11-21T04:20:06;27.33;;;14.23;;
21326;SDS011;10822;51.532;6.770;2023-11-21T04:22:34;24.35;;;12.95;;
21326;SDS011;10822;51.532;6.770;2023-11-21T04:25:01;23.63;;;13.75;;
21326;SDS011;10822;51.532;6.770;2023-11-21T04:27:27;27.88;;;15.30;;
21326;SDS011;10822;51.532;6.770;2023-11-21T04:29:53;28.50;;;14.63;;
21326;SDS011;10822;51.532;6.770;2023-11-21T04:32:19;29.80;;;15.95;;
21326;SDS011;10822;51.532;6.770;2023-11-21T04:34:45;27.23;;;14.45;;
21326;SDS011;10822;51.532;6.770;2023-11-21T04:37:11;30.45;;;15.68;;
21326;SDS011;10822;51.532;6.770;2023-11-21T04:39:38;25.85;;;15.30;;
21326;SDS011;10822;51.532;6.770;2023-11-21T04:42:04;28.23;;;16.02;;
21326;SDS011;10822;51.532;6.770;2023-11-21T04:44:30;25.52;;;13.10;;
21326;SDS011;10822;51.532;6.770;2023-11-21T04:47:00;25.95;;;13.93;;
21326;SDS011;10822;51.532;6.770;2023-11-21T04:49:26;24.90;;;13.35;;
21326;SDS011;10822;51.532;6.770;2023-11-21T04:51:52;24.45;;;13.93;;
21326;SDS011;10822;51.532;6.770;2023-11-21T04:54:18;22.42;;;13.35;;
21326;SDS011;10822;51.532;6.770;2023-11-21T04:56:44;21.77;;;13.48;;
21326;SDS011;10822;51.532;6.770;2023-11-21T04:59:10;21.50;;;13.15;;
21326;SDS011;10822;51.532;6.770;2023-11-21T05:01:36;27.65;;;13.43;;
21326;SDS011;10822;51.532;6.770;2023-11-21T05:04:04;22.52;;;12.88;;
21326;SDS011;10822;51.532;6.770;2023-11-21T05:06:30;22.55;;;14.50;;
21326;SDS011;10822;51.532;6.770;2023-11-21T05:08:57;24.35;;;14.23;;
21326;SDS011;10822;51.532;6.770;2023-11-21T05:11:27;26.13;;;12.55;;
21326;SDS011;10822;51.532;6.770;2023-11-21T05:13:53;27.92;;;13.95;;
21326;SDS011;10822;51.532;6.770;2023-11-21T05:16:21;24.73;;;14.40;;
21326;SDS011;10822;51.532;6.770;2023-11-21T05:18:47;27.88;;;14.77;;
21326;SDS011;10822;51.532;6.770;2023-11-21T05:21:15;29.25;;;15.68;;
21326;SDS011;10822;51.532;6.770;2023-11-21T05:23:41;32.25;;;15.88;;
21326;SDS011;10822;51.532;6.770;2023-11-21T05:26:07;28.17;;;16.85;;
21326;SDS011;10822;51.532;6.770;2023-11-21T05:28:33;27.23;;;15.63;;
21326;SDS011;10822;51.532;6.770;2023-11-21T05:30:59;30.10;;;17.50;;
21326;SDS011;10822;51.532;6.770;2023-11-21T05:33:25;32.42;;;16.67;;
21326;SDS011;10822;51.532;6.770;2023-11-21T05:35:51;31.38;;;17.00;;
21326;SDS011;10822;51.532;6.770;2023-11-21T05:38:17;27.15;;;14.95;;
21326;SDS011;10822;51.532;6.770;2023-11-21T05:40:43;27.60;;;16.55;;
21326;SDS011;10822;51.532;6.770;2023-11-21T05:43:09;29.55;;;16.15;;
21326;SDS011;10822;51.532;6.770;2023-11-21T05:45:35;29.23;;;16.67;;
21326;SDS011;10822;51.532;6.770;2023-11-21T05:48:02;27.30;;;14.82;;
21326;SDS011;10822;51.532;6.770;2023-11-21T05:50:28;41.42;;;19.75;;
21326;SDS011;10822;51.532;6.770;2023-11-21T05:52:55;37.78;;;20.67;;
21326;SDS011;10822;51.532;6.770;2023-11-21T05:55:24;46.25;;;21.80;;
21326;SDS011;10822;51.532;6.770;2023-11-21T05:57:51;45.08;;;23.30;;
21326;SDS011;10822;51.532;6.770;2023-11-21T06:00:17;50.25;;;24.23;;
21326;SDS011;10822;51.532;6.770;2023-11-21T06:02:49;60.00;;;26.42;;
21326;SDS011;10822;51.532;6.770;2023-11-21T06:05:17;57.22;;;25.60;;
21326;SDS011;10822;51.532;6.770;2023-11-21T06:07:43;59.47;;;25.10;;
21326;SDS011;10822;51.532;6.770;2023-11-21T06:10:10;52.70;;;23.95;;
21326;SDS011;10822;51.532;6.770;2023-11-21T06:12:40;57.13;;;25.65;;
21326;SDS011;10822;51.532;6.770;2023-11-21T06:15:08;56.25;;;25.80;;
21326;SDS011;10822;51.532;6.770;2023-11-21T06:17:37;62.90;;;27.63;;
21326;SDS011;10822;51.532;6.770;2023-11-21T06:20:04;61.58;;;27.50;;
21326;SDS011;10822;51.532;6.770;2023-11-21T06:22:34;67.13;;;27.50;;
21326;SDS011;10822;51.532;6.770;2023-11-21T06:25:00;64.22;;;29.27;;
21326;SDS011;10822;51.532;6.770;2023-11-21T06:27:28;61.17;;;29.10;;
21326;SDS011;10822;51.532;6.770;2023-11-21T06:29:54;67.45;;;29.27;;
21326;SDS011;10822;51.532;6.770;2023-11-21T06:32:21;62.83;;;27.92;;
21326;SDS011;10822;51.532;6.770;2023-11-21T06:34:47;56.42;;;26.83;;
21326;SDS011;10822;51.532;6.770;2023-11-21T06:37:14;57.33;;;26.25;;
21326;SDS011;10822;51.532;6.770;2023-11-21T06:39:40;56.25;;;25.02;;
21326;SDS011;10822;51.532;6.770;2023-11-21T06:42:06;49.50;;;22.73;;
21326;SDS011;10822;51.532;6.770;2023-11-21T06:44:32;48.80;;;23.25;;
21326;SDS011;10822;51.532;6.770;2023-11-21T06:47:00;51.00;;;24.08;;
21326;SDS011;10822;51.532;6.770;2023-11-21T06:49:26;54.05;;;24.50;;
21326;SDS011;10822;51.532;6.770;2023-11-21T06:51:52;59.38;;;27.35;;
21326;SDS011;10822;51.532;6.770;2023-11-21T06:54:19;63.80;;;28.50;;
21326;SDS011;10822;51.532;6.770;2023-11-21T06:56:45;65.30;;;27.45;;
21326;SDS011;10822;51.532;6.770;2023-11-21T06:59:12;63.80;;;30.13;;
21326;SDS011;10822;51.532;6.770;2023-11-21T07:01:38;63.45;;;28.60;;
21326;SDS011;10822;51.532;6.770;2023-11-21T07:04:06;68.03;;;28.67;;
21326;SDS011;10822;51.532;6.770;2023-11-21T07:06:32;56.22;;;24.75;;
21326;SDS011;10822;51.532;6.770;2023-11-21T07:08:58;75.40;;;29.88;;
21326;SDS011;10822;51.532;6.770;2023-11-21T07:11:24;58.67;;;28.48;;
21326;SDS011;10822;51.532;6.770;2023-11-21T07:13:50;63.92;;;27.73;;
21326;SDS011;10822;51.532;6.770;2023-11-21T07:16:17;64.10;;;26.52;;
21326;SDS011;10822;51.532;6.770;2023-11-21T07:18:43;58.55;;;26.73;;
21326;SDS011;10822;51.532;6.770;2023-11-21T07:21:09;64.88;;;29.08;;
21326;SDS011;10822;51.532;6.770;2023-11-21T07:23:37;53.28;;;24.17;;
21326;SDS011;10822;51.532;6.770;2023-11-21T07:26:03;60.92;;;26.98;;
21326;SDS011;10822;51.532;6.770;2023-11-21T07:28:34;57.55;;;25.45;;
21326;SDS011;10822;51.532;6.770;2023-11-21T07:31:00;57.97;;;26.65;;
21326;SDS011;10822;51.532;6.770;2023-11-21T07:33:26;56.72;;;27.75;;
21326;SDS011;10822;51.532;6.770;2023-11-21T07:35:52;59.03;;;27.02;;
21326;SDS011;10822;51.532;6.770;2023-11-21T07:38:18;57.53;;;27.88;;
21326;SDS011;10822;51.532;6.770;2023-11-21T07:40:44;57.42;;;27.17;;
21326;SDS011;10822;51.532;6.770;2023-11-21T07:43:10;54.40;;;25.55;;
21326;SDS011;10822;51.532;6.770;2023-11-21T07:45:36;58.10;;;25.75;;
21326;SDS011;10822;51.532;6.770;2023-11-21T07:48:02;57.47;;;27.48;;
21326;SDS011;10822;51.532;6.770;2023-11-21T07:50:30;54.72;;;27.10;;
21326;SDS011;10822;51.532;6.770;2023-11-21T07:52:56;55.65;;;26.20;;
21326;SDS011;10822;51.532;6.770;2023-11-21T07:55:23;63.15;;;27.58;;
21326;SDS011;10822;51.532;6.770;2023-11-21T07:57:50;57.75;;;27.33;;
21326;SDS011;10822;51.532;6.770;2023-11-21T08:00:16;65.57;;;30.40;;
21326;SDS011;10822;51.532;6.770;2023-11-21T08:02:42;57.15;;;25.00;;
21326;SDS011;10822;51.532;6.770;2023-11-21T08:05:10;61.22;;;27.60;;
21326;SDS011;10822;51.532;6.770;2023-11-21T08:07:36;68.00;;;29.40;;
21326;SDS011;10822;51.532;6.770;2023-11-21T08:10:02;68.93;;;30.40;;
21326;SDS011;10822;51.532;6.770;2023-11-21T08:12:29;66.88;;;29.02;;
21326;SDS011;10822;51.532;6.770;2023-11-21T08:14:55;63.65;;;27.45;;
21326;SDS011;10822;51.532;6.770;2023-11-21T08:17:21;64.30;;;28.42;;
21326;SDS011;10822;51.532;6.770;2023-11-21T08:19:48;68.03;;;29.33;;
21326;SDS011;10822;51.532;6.770;2023-11-21T08:22:16;66.00;;;29.25;;
21326;SDS011;10822;51.532;6.770;2023-11-21T08:24:43;65.22;;;28.52;;
21326;SDS011;10822;51.532;6.770;2023-11-21T08:27:09;60.47;;;26.70;;
21326;SDS011;10822;51.532;6.770;2023-11-21T08:29:35;57.58;;;27.55;;
21326;SDS011;10822;51.532;6.770;2023-11-21T08:32:01;53.05;;;26.10;;
21326;SDS011;10822;51.532;6.770;2023-11-21T08:34:27;55.30;;;25.10;;
21326;SDS011;10822;51.532;6.770;2023-11-21T08:36:54;45.75;;;22.67;;
21326;SDS011;10822;51.532;6.770;2023-11-21T08:39:22;57.95;;;25.45;;
21326;SDS011;10822;51.532;6.770;2023-11-21T08:41:49;50.35;;;23.65;;
21326;SDS011;10822;51.532;6.770;2023-11-21T08:44:15;53.83;;;24.50;;
21326;SDS011;10822;51.532;6.770;2023-11-21T08:46:43;52.28;;;25.15;;
21326;SDS011;10822;51.532;6.770;2023-11-21T08:49:10;53.47;;;24.73;;
21326;SDS011;10822;51.532;6.770;2023-11-21T08:51:37;50.22;;;23.75;;
21326;SDS011;10822;51.532;6.770;2023-11-21T08:54:03;44.30;;;20.58;;
21326;SDS011;10822;51.532;6.770;2023-11-21T08:56:32;53.67;;;24.00;;
21326;SDS011;10822;51.532;6.770;2023-11-21T08:58:58;49.28;;;23.17;;
21326;SDS011;10822;51.532;6.770;2023-11-21T09:01:27;51.42;;;23.65;;
21326;SDS011;10822;51.532;6.770;2023-11-21T09:03:53;47.42;;;22.73;;
21326;SDS011;10822;51.532;6.770;2023-11-21T09:06:19;53.58;;;24.98;;
21326;SDS011;10822;51.532;6.770;2023-11-21T09:08:45;54.97;;;25.20;;
21326;SDS011;10822;51.532;6.770;2023-11-21T09:11:11;55.28;;;25.50;;
21326;SDS011;10822;51.532;6.770;2023-11-21T09:13:37;56.65;;;25.10;;
21326;SDS011;10822;51.532;6.770;2023-11-21T09:16:03;50.38;;;23.45;;
21326;SDS011;10822;51.532;6.770;2023-11-21T09:18:29;50.97;;;22.98;;
21326;SDS011;10822;51.532;6.770;2023-11-21T09:20:55;43.63;;;20.23;;
21326;SDS011;10822;51.532;6.770;2023-11-21T09:23:21;50.83;;;22.77;;
21326;SDS011;10822;51.532;6.770;2023-11-21T09:25:47;49.28;;;23.55;;
21326;SDS011;10822;51.532;6.770;2023-11-21T09:28:15;58.13;;;24.27;;
21326;SDS011;10822;51.532;6.770;2023-11-21T09:30:42;50.00;;;22.73;;
21326;SDS011;10822;51.532;6.770;2023-11-21T09:33:08;61.03;;;23.65;;
21326;SDS011;10822;51.532;6.770;2023-11-21T09:35:36;62.92;;;24.38;;
21326;SDS011;10822;51.532;6.770;2023-11-21T09:38:03;63.75;;;26.83;;
21326;SDS011;10822;51.532;6.770;2023-11-21T09:40:35;68.93;;;28.77;;
21326;SDS011;10822;51.532;6.770;2023-11-21T09:43:02;66.53;;;27.30;;
21326;SDS011;10822;51.532;6.770;2023-11-21T09:45:34;57.50;;;26.52;;
21326;SDS011;10822;51.532;6.770;2023-11-21T09:48:00;63.78;;;25.13;;
21326;SDS011;10822;51.532;6.770;2023-11-21T09:50:27;66.72;;;26.00;;
21326;SDS011;10822;51.532;6.770;2023-11-21T09:55:46;60.25;;;26.08;;
21326;SDS011;10822;51.532;6.770;2023-11-21T09:58:13;62.58;;;26.48;;
21326;SDS011;10822;51.532;6.770;2023-11-21T10:00:42;67.03;;;26.27;;
21326;SDS011;10822;51.532;6.770;2023-11-21T10:03:09;69.15;;;27.25;;
21326;SDS011;10822;51.532;6.770;2023-11-21T10:05:36;70.80;;;26.83;;
21326;SDS011;10822;51.532;6.770;2023-11-21T10:08:03;67.47;;;27.48;;
21326;SDS011;10822;51.532;6.770;2023-11-21T10:10:31;64.75;;;27.70;;
21326;SDS011;10822;51.532;6.770;2023-11-21T10:13:00;66.72;;;27.02;;
21326;SDS011;10822;51.532;6.770;2023-11-21T10:15:26;60.75;;;25.02;;
21326;SDS011;10822;51.532;6.770;2023-11-21T10:17:53;71.38;;;28.73;;
21326;SDS011;10822;51.532;6.770;2023-11-21T10:20:20;81.63;;;31.30;;
21326;SDS011;10822;51.532;6.770;2023-11-21T10:22:47;68.10;;;26.60;;
21326;SDS011;10822;51.532;6.770;2023-11-21T10:25:13;60.47;;;25.73;;
21326;SDS011;10822;51.532;6.770;2023-11-21T10:27:48;59.63;;;25.13;;
21326;SDS011;10822;51.532;6.770;2023-11-21T10:30:17;62.75;;;27.05;;
21326;SDS011;10822;51.532;6.770;2023-11-21T10:32:43;60.97;;;26.05;;
21326;SDS011;10822;51.532;6.770;2023-11-21T10:35:09;67.35;;;27.50;;
21326;SDS011;10822;51.532;6.770;2023-11-21T10:37:41;57.83;;;24.58;;
21326;SDS011;10822;51.532;6.770;2023-11-21T10:40:11;55.85;;;23.95;;
21326;SDS011;10822;51.532;6.770;2023-11-21T10:42:37;64.72;;;25.00;;
21326;SDS011;10822;51.532;6.770;2023-11-21T10:45:04;58.20;;;23.63;;
21326;SDS011;10822;51.532;6.770;2023-11-21T10:47:37;56.40;;;22.58;;
21326;SDS011;10822;51.532;6.770;2023-11-21T10:50:03;58.10;;;23.38;;
21326;SDS011;10822;51.532;6.770;2023-11-21T10:52:29;59.72;;;24.00;;
21326;SDS011;10822;51.532;6.770;2023-11-21T10:54:55;62.65;;;24.10;;
21326;SDS011;10822;51.532;6.770;2023-11-21T10:57:24;55.15;;;21.10;;
21326;SDS011;10822;51.532;6.770;2023-11-21T10:59:50;58.63;;;25.52;;
21326;SDS011;10822;51.532;6.770;2023-11-21T11:02:24;53.72;;;22.35;;
21326;SDS011;10822;51.532;6.770;2023-11-21T11:04:53;58.70;;;21.58;;
21326;SDS011;10822;51.532;6.770;2023-11-21T11:07:21;56.50;;;22.40;;
21326;SDS011;10822;51.532;6.770;2023-11-21T11:09:47;53.25;;;22.23;;
21326;SDS011;10822;51.532;6.770;2023-11-21T11:12:13;46.90;;;21.45;;
21326;SDS011;10822;51.532;6.770;2023-11-21T11:14:42;52.47;;;21.83;;
21326;SDS011;10822;51.532;6.770;2023-11-21T11:17:09;49.25;;;20.80;;
21326;SDS011;10822;51.532;6.770;2023-11-21T11:19:36;47.00;;;21.70;;
21326;SDS011;10822;51.532;6.770;2023-11-21T11:27:01;37.95;;;17.90;;
21326;SDS011;10822;51.532;6.770;2023-11-21T11:29:41;44.00;;;19.85;;
21326;SDS011;10822;51.532;6.770;2023-11-21T11:37:21;36.33;;;16.27;;
21326;SDS011;10822;51.532;6.770;2023-11-21T11:39:48;35.30;;;17.08;;
21326;SDS011;10822;51.532;6.770;2023-11-21T11:42:16;38.63;;;18.13;;
21326;SDS011;10822;51.532;6.770;2023-11-21T11:47:28;33.17;;;16.50;;
21326;SDS011;10822;51.532;6.770;2023-11-21T11:50:08;35.50;;;17.23;;
21326;SDS011;10822;51.532;6.770;2023-11-21T11:52:45;35.55;;;16.48;;
21326;SDS011;10822;51.532;6.770;2023-11-21T11:55:15;33.45;;;16.60;;
21326;SDS011;10822;51.532;6.770;2023-11-21T11:57:54;38.95;;;17.20;;
21326;SDS011;10822;51.532;6.770;2023-11-21T12:02:53;37.88;;;18.73;;
21326;SDS011;10822;51.532;6.770;2023-11-21T12:05:22;40.70;;;19.55;;
21326;SDS011;10822;51.532;6.770;2023-11-21T12:07:52;34.80;;;17.13;;
21326;SDS011;10822;51.532;6.770;2023-11-21T12:10:19;35.75;;;16.77;;
21326;SDS011;10822;51.532;6.770;2023-11-21T12:12:46;36.67;;;18.55;;
21326;SDS011;10822;51.532;6.770;2023-11-21T12:15:13;42.05;;;19.95;;
21326;SDS011;10822;51.532;6.770;2023-11-21T12:17:39;39.03;;;18.83;;
21326;SDS011;10822;51.532;6.770;2023-11-21T12:20:05;39.30;;;17.58;;
21326;SDS011;10822;51.532;6.770;2023-11-21T12:22:40;41.00;;;19.35;;
21326;SDS011;10822;51.532;6.770;2023-11-21T12:25:07;33.47;;;17.20;;
21326;SDS011;10822;51.532;6.770;2023-11-21T12:27:33;33.45;;;16.00;;
21326;SDS011;10822;51.532;6.770;2023-11-21T12:29:58;27.88;;;13.65;;
21326;SDS011;10822;51.532;6.770;2023-11-21T12:32:24;20.27;;;11.65;;
21326;SDS011;10822;51.532;6.770;2023-11-21T12:34:51;19.77;;;11.13;;
21326;SDS011;10822;51.532;6.770;2023-11-21T12:37:17;18.08;;;10.35;;
21326;SDS011;10822;51.532;6.770;2023-11-21T12:39:43;17.45;;;9.75;;
21326;SDS011;10822;51.532;6.770;2023-11-21T12:42:09;20.98;;;11.25;;
21326;SDS011;10822;51.532;6.770;2023-11-21T12:44:35;17.63;;;10.52;;
21326;SDS011;10822;51.532;6.770;2023-11-21T12:47:05;19.88;;;11.90;;
21326;SDS011;10822;51.532;6.770;2023-11-21T12:49:32;21.92;;;12.18;;
21326;SDS011;10822;51.532;6.770;2023-11-21T12:51:59;19.60;;;12.15;;
21326;SDS011;10822;51.532;6.770;2023-11-21T12:54:25;20.08;;;11.60;;
21326;SDS011;10822;51.532;6.770;2023-11-21T12:56:51;21.95;;;11.57;;
21326;SDS011;10822;51.532;6.770;2023-11-21T12:59:17;20.05;;;12.00;;
21326;SDS011;10822;51.532;6.770;2023-11-21T13:01:43;20.00;;;11.60;;
21326;SDS011;10822;51.532;6.770;2023-11-21T13:04:11;23.40;;;13.52;;
21326;SDS011;10822;51.532;6.770;2023-11-21T13:06:37;23.88;;;13.65;;
21326;SDS011;10822;51.532;6.770;2023-11-21T13:09:06;24.73;;;13.88;;
21326;SDS011;10822;51.532;6.770;2023-11-21T13:11:35;25.02;;;14.15;;
21326;SDS011;10822;51.532;6.770;2023-11-21T13:14:01;21.95;;;12.10;;
21326;SDS011;10822;51.532;6.770;2023-11-21T13:16:28;24.48;;;14.20;;
21326;SDS011;10822;51.532;6.770;2023-11-21T13:18:55;24.77;;;13.77;;
21326;SDS011;10822;51.532;6.770;2023-11-21T13:21:21;22.30;;;13.20;;
21326;SDS011;10822;51.532;6.770;2023-11-21T13:23:47;23.00;;;13.40;;
21326;SDS011;10822;51.532;6.770;2023-11-21T13:26:16;22.35;;;12.73;;
21326;SDS011;10822;51.532;6.770;2023-11-21T13:28:42;22.63;;;12.38;;
21326;SDS011;10822;51.532;6.770;2023-11-21T13:31:12;23.75;;;13.40;;
21326;SDS011;10822;51.532;6.770;2023-11-21T13:33:57;25.38;;;13.68;;
21326;SDS011;10822;51.532;6.770;2023-11-21T13:38:58;24.92;;;13.73;;
21326;SDS011;10822;51.532;6.770;2023-11-21T13:41:29;23.73;;;12.95;;
21326;SDS011;10822;51.532;6.770;2023-11-21T13:43:58;24.63;;;14.27;;
21326;SDS011;10822;51.532;6.770;2023-11-21T13:46:38;24.40;;;13.18;;
21326;SDS011;10822;51.532;6.770;2023-11-21T13:49:04;31.25;;;14.07;;
21326;SDS011;10822;51.532;6.770;2023-11-21T13:51:34;26.25;;;13.77;;
21326;SDS011;10822;51.532;6.770;2023-11-21T13:54:09;26.17;;;13.63;;
21326;SDS011;10822;51.532;6.770;2023-11-21T13:56:36;25.05;;;12.07;;
21326;SDS011;10822;51.532;6.770;2023-11-21T13:59:02;23.00;;;13.68;;
21326;SDS011;10822;51.532;6.770;2023-11-21T14:01:45;28.95;;;15.43;;
21326;SDS011;10822;51.532;6.770;2023-11-21T14:04:22;25.92;;;13.98;;
21326;SDS011;10822;51.532;6.770;2023-11-21T14:07:06;25.02;;;13.55;;
21326;SDS011;10822;51.532;6.770;2023-11-21T14:09:47;20.63;;;12.27;;
21326;SDS011;10822;51.532;6.770;2023-11-21T14:12:14;26.40;;;13.52;;
21326;SDS011;10822;51.532;6.770;2023-11-21T14:14:41;25.52;;;15.02;;
21326;SDS011;10822;51.532;6.770;2023-11-21T14:17:06;25.55;;;13.85;;
21326;SDS011;10822;51.532;6.770;2023-11-21T14:19:33;24.38;;;13.38;;
21326;SDS011;10822;51.532;6.770;2023-11-21T14:22:03;21.42;;;11.68;;
21326;SDS011;10822;51.532;6.770;2023-11-21T14:24:29;23.55;;;13.30;;
21326;SDS011;10822;51.532;6.770;2023-11-21T14:26:57;26.83;;;14.05;;
21326;SDS011;10822;51.532;6.770;2023-11-21T14:29:23;24.73;;;13.80;;
21326;SDS011;10822;51.532;6.770;2023-11-21T14:31:49;22.88;;;12.77;;
21326;SDS011;10822;51.532;6.770;2023-11-21T14:34:16;21.30;;;12.35;;
21326;SDS011;10822;51.532;6.770;2023-11-21T14:36:43;23.02;;;12.70;;
21326;SDS011;10822;51.532;6.770;2023-11-21T14:39:10;20.73;;;12.52;;
21326;SDS011;10822;51.532;6.770;2023-11-21T14:41:47;24.10;;;12.30;;
21326;SDS011;10822;51.532;6.770;2023-11-21T14:44:13;23.05;;;12.45;;